Time;durP1;ratioP1;P1;durP2;ratioP2;P2;SDS_P1;SDS_P2;PMS_P1;PMS_P2;Temp;Humidity;BMP_temperature;BMP_pressure;BME280_temperature;BME280_humidity;BME280_pressure;Samples;Min_cycle;Max_cycle;Signal;HPM_P1;HPM_P2
2021/10/17 00:10:38;;;;;;;0.17;0.17;;;9.80;81.80;8.80;102005.00;;;;31248768;28;20072;-65
2021/10/17 00:25:45;;;;;;;0.30;0.30;;;9.80;81.80;8.80;102008.00;;;;31242251;28;20488;-65
2021/10/17 00:40:53;;;;;;;0.20;0.20;;;9.90;81.50;8.80;102004.00;;;;31245057;28;20560;-65
2021/10/17 00:55:54;;;;;;;0.20;0.20;;;9.90;82.70;8.80;102001.00;;;;31246540;28;20037;-65
2021/10/17 01:10:57;;;;;;;2.13;1.92;;;12.50;82.70;8.70;101973.00;;;;31239837;28;20039;-65
2021/10/17 01:26:04;;;;;;;0.30;0.30;;;9.70;81.30;8.60;101968.00;;;;31230158;28;20049;-65
2021/10/17 01:41:06;;;;;;;0.15;0.15;;;9.40;81.20;8.60;101971.00;;;;31241332;28;20626;-65
2021/10/17 01:56:09;;;;;;;0.30;0.30;;;9.60;81.90;8.50;101961.00;;;;31223784;28;20236;-65
2021/10/17 02:11:16;;;;;;;0.28;0.28;;;9.60;82.30;8.50;101950.00;;;;31227582;28;20060;-65
2021/10/17 02:26:19;;;;;;;0.20;0.20;;;9.60;82.10;8.60;101943.00;;;;31247847;28;20520;-65
2021/10/17 02:41:39;;;;;;;0.20;0.20;;;9.60;82.40;8.50;101943.00;;;;31245652;28;20056;-65
2021/10/17 02:56:40;;;;;;;1.17;1.17;;;9.60;83.60;8.50;101949.00;;;;31251570;28;20076;-65
2021/10/17 03:11:44;;;;;;;0.20;0.20;;;9.60;83.60;8.60;101940.00;;;;31246671;28;20128;-65
2021/10/17 03:26:51;;;;;;;0.10;0.10;;;9.60;84.10;8.50;101928.00;;;;31232633;28;20075;-65
2021/10/17 03:41:52;;;;;;;0.38;0.38;;;9.50;83.10;8.50;101927.00;;;;31243311;28;20144;-64
2021/10/17 03:56:53;;;;;;;0.20;0.20;;;9.50;84.60;8.40;101936.00;;;;31250197;28;20055;-65
2021/10/17 04:12:00;;;;;;;0.20;0.20;;;9.50;83.40;8.40;101949.00;;;;31234883;28;20043;-65
2021/10/17 04:27:08;;;;;;;0.20;0.20;;;9.50;83.40;8.40;101945.00;;;;31247687;28;20447;-65
2021/10/17 04:42:17;;;;;;;0.10;0.10;;;9.50;83.40;8.40;101942.00;;;;31245048;28;20045;-65
2021/10/17 04:57:17;;;;;;;0.10;0.10;;;9.40;83.50;8.30;101926.00;;;;31240122;28;20041;-65
2021/10/17 05:12:22;;;;;;;0.20;0.20;;;9.40;83.70;8.30;101939.00;;;;31220718;28;20045;-65
2021/10/17 05:27:24;;;;;;;0.10;0.10;;;9.30;83.70;8.10;101925.00;;;;31239685;28;20091;-65
2021/10/17 05:42:25;;;;;;;0.20;0.20;;;9.20;83.90;8.10;101940.00;;;;31245943;28;20046;-65
2021/10/17 05:57:27;;;;;;;0.20;0.20;;;9.20;84.60;8.10;101953.00;;;;31261819;28;20045;-64
2021/10/17 06:12:29;;;;;;;0.20;0.20;;;9.10;85.20;8.00;101956.00;;;;31263126;28;20080;-64
2021/10/17 06:27:30;;;;;;;0.10;0.10;;;9.10;84.10;8.00;101967.00;;;;31228787;28;20615;-64
2021/10/17 06:42:33;;;;;;;0.20;0.20;;;9.10;84.10;8.10;101990.00;;;;31236825;28;20057;-65
2021/10/17 06:57:52;;;;;;;0.20;0.20;;;9.20;84.50;8.20;101985.00;;;;31256010;28;20164;-64
2021/10/17 07:12:54;;;;;;;0.20;0.20;;;9.30;83.80;8.40;101989.00;;;;31248610;28;20041;-65
2021/10/17 07:27:59;;;;;;;0.20;0.20;;;9.60;83.50;8.60;101971.00;;;;31247833;28;20111;-65
2021/10/17 07:43:06;;;;;;;0.50;0.50;;;9.60;82.80;8.70;101992.00;;;;31238321;28;20520;-65
2021/10/17 07:58:08;;;;;;;0.35;0.35;;;10.20;81.80;9.30;102027.00;;;;31244194;28;20076;-65
2021/10/17 08:13:17;;;;;;;0.55;0.55;;;9.90;79.80;9.60;102027.00;;;;31237121;28;20393;-65
2021/10/17 08:28:28;;;;;;;0.25;0.25;;;10.90;78.80;10.10;102024.00;;;;31246002;28;20068;-65
2021/10/17 08:43:35;;;;;;;0.45;0.45;;;11.30;78.60;10.60;102028.00;;;;31233583;28;21092;-66
2021/10/17 08:58:57;;;;;;;0.20;0.20;;;11.70;77.70;10.90;102021.00;;;;31188201;28;20058;-66
2021/10/17 09:14:18;;;;;;;0.20;0.20;;;11.90;77.00;11.10;102027.00;;;;31128894;28;20720;-67
2021/10/17 09:29:34;;;;;;;0.30;0.30;;;12.20;76.10;11.50;102017.00;;;;31123872;28;20125;-67
2021/10/17 09:44:47;;;;;;;0.40;0.40;;;12.50;75.60;11.80;102028.00;;;;31125857;28;20417;-65
2021/10/17 09:59:48;;;;;;;0.40;0.40;;;12.80;74.10;12.00;102033.00;;;;31125227;28;20507;-66
2021/10/17 10:14:55;;;;;;;0.10;0.10;;;13.10;74.20;12.40;102030.00;;;;31114276;28;20408;-66
2021/10/17 10:30:42;;;;;;;0.20;0.20;;;13.40;72.70;12.80;102039.00;;;;31103912;28;20053;-67
2021/10/17 10:46:01;;;;;;;0.17;0.17;;;13.70;71.60;13.10;102043.00;;;;31123206;28;20041;-67
2021/10/17 11:01:04;;;;;;;0.95;0.95;;;14.10;69.00;13.40;102020.00;;;;31207693;28;20052;-66
2021/10/17 11:16:20;;;;;;;0.30;0.30;;;14.20;68.70;13.40;102019.00;;;;31252427;28;20121;-66
2021/10/17 11:31:26;;;;;;;0.17;0.17;;;14.20;67.60;13.50;102006.00;;;;31251367;28;20075;-67
2021/10/17 11:46:29;;;;;;;0.25;0.25;;;14.70;65.50;14.10;102004.00;;;;31237710;28;20115;-67
2021/10/17 12:01:30;;;;;;;0.20;0.20;;;14.40;65.30;14.30;102005.00;;;;31237357;28;20172;-67
2021/10/17 12:16:32;;;;;;;0.20;0.20;;;15.00;63.40;14.40;101981.00;;;;31245778;28;20040;-67
2021/10/17 12:31:36;;;;;;;0.28;0.28;;;15.30;62.00;14.60;101969.00;;;;31241416;28;20106;-67
2021/10/17 12:47:04;;;;;;;0.20;0.20;;;15.30;61.80;14.70;101962.00;;;;31218504;28;21336;-66
2021/10/17 13:02:21;;;;;;;0.20;0.20;;;15.30;60.20;14.60;101960.00;;;;31120469;28;20042;-66
2021/10/17 13:17:27;;;;;;;0.40;0.40;;;15.40;60.40;14.70;101955.00;;;;31095801;28;20034;-67
2021/10/17 13:32:30;;;;;;;0.10;0.10;;;15.40;60.30;14.50;101941.00;;;;31131286;28;20042;-67
2021/10/17 13:47:32;;;;;;;0.30;0.30;;;15.40;62.00;14.70;101957.00;;;;31127332;28;20541;-67
2021/10/17 14:02:39;;;;;;;0.20;0.20;;;15.40;61.60;14.60;101964.00;;;;31128077;28;20558;-67
2021/10/17 14:17:40;;;;;;;0.20;0.20;;;15.20;61.80;14.40;101951.00;;;;31140092;28;20037;-66
2021/10/17 14:32:45;;;;;;;0.10;0.10;;;15.10;62.20;14.20;101964.00;;;;31132745;28;20160;-66
2021/10/17 14:47:56;;;;;;;1.40;0.75;;;15.00;62.10;14.10;101960.00;;;;31140004;28;20583;-67
2021/10/17 15:02:57;;;;;;;0.20;0.20;;;14.90;62.90;14.10;101963.00;;;;31218709;28;20049;-67
2021/10/17 15:18:03;;;;;;;0.10;0.10;;;14.80;63.50;14.00;101973.00;;;;31261767;28;20538;-67
2021/10/17 15:33:08;;;;;;;0.20;0.20;;;14.70;64.40;13.80;101975.00;;;;31256020;28;20076;-67
2021/10/17 15:48:10;;;;;;;0.10;0.10;;;14.60;64.20;13.70;101967.00;;;;31256511;28;20490;-67
2021/10/17 16:03:12;;;;;;;0.10;0.10;;;14.40;66.60;13.50;101984.00;;;;31268644;28;20210;-67
2021/10/17 16:18:14;;;;;;;0.10;0.10;;;14.30;69.00;13.30;101984.00;;;;31251633;28;20140;-68
2021/10/17 16:33:18;;;;;;;0.10;0.10;;;14.10;71.50;13.10;102009.00;;;;31249486;28;20442;-67
2021/10/17 16:48:22;;;;;;;0.20;0.20;;;13.90;71.00;12.90;102013.00;;;;31217156;28;20053;-67
2021/10/17 17:03:27;;;;;;;0.10;0.10;;;13.70;72.40;12.70;102011.00;;;;31243584;28;20504;-68
2021/10/17 17:18:30;;;;;;;0.20;0.20;;;13.50;72.60;12.50;102023.00;;;;31240666;28;20042;-66
2021/10/17 17:33:32;;;;;;;0.28;0.28;;;13.40;73.60;12.30;102025.00;;;;31247921;28;20726;-67
2021/10/17 17:48:33;;;;;;;0.10;0.10;;;13.20;75.00;12.10;102029.00;;;;31259219;28;20060;-67
2021/10/17 18:03:41;;;;;;;0.13;0.13;;;13.00;75.70;11.90;102062.00;;;;31239610;28;20049;-66
2021/10/17 18:18:42;;;;;;;0.43;0.43;;;12.80;75.90;11.80;102054.00;;;;31254043;28;20090;-67
2021/10/17 18:33:43;;;;;;;0.10;0.10;;;13.30;76.60;11.80;102040.00;;;;31266987;28;20118;-66
2021/10/17 18:48:45;;;;;;;0.10;0.10;;;12.70;74.90;11.80;102045.00;;;;31261435;28;20162;-67
2021/10/17 19:04:19;;;;;;;0.13;0.13;;;12.70;74.40;11.80;102062.00;;;;31260120;28;20790;-66
2021/10/17 19:19:20;;;;;;;0.20;0.20;;;12.70;75.00;11.80;102068.00;;;;31248824;28;20044;-65
2021/10/17 19:34:22;;;;;;;0.10;0.10;;;12.70;75.80;11.70;102039.00;;;;31237153;28;20041;-65
2021/10/17 19:49:23;;;;;;;0.10;0.10;;;12.60;74.80;11.60;102054.00;;;;31242230;28;20045;-65
2021/10/17 20:04:24;;;;;;;0.10;0.10;;;12.60;77.70;11.60;102068.00;;;;31234751;28;20602;-65
2021/10/17 20:19:38;;;;;;;0.30;0.30;;;12.50;76.70;11.60;102069.00;;;;31237739;28;20037;-64
2021/10/17 20:34:43;;;;;;;0.30;0.30;;;12.50;78.50;11.70;102094.00;;;;31230647;28;20041;-64
2021/10/17 20:49:46;;;;;;;0.10;0.10;;;12.60;83.50;11.60;102080.00;;;;31230886;28;20056;-64
2021/10/17 21:04:51;;;;;;;0.15;0.15;;;12.40;80.30;11.50;102091.00;;;;31236701;28;20069;-65
2021/10/17 21:19:52;;;;;;;;;;;12.20;80.00;11.10;102090.00;;;;31251499;28;20595;-64
2021/10/17 21:34:53;;;;;;;0.20;0.20;;;12.10;80.30;10.70;102106.00;;;;31254989;28;19997;-65
2021/10/17 21:50:46;;;;;;;0.30;0.30;;;11.70;82.00;10.40;102115.00;;;;31058233;27;21314;-65
2021/10/17 22:05:47;;;;;;;0.20;0.20;;;11.30;82.70;10.10;102121.00;;;;30868166;28;20409;-65
2021/10/17 22:20:48;;;;;;;0.13;0.13;;;11.20;82.10;10.00;102132.00;;;;30876963;28;20453;-65
2021/10/17 22:35:49;;;;;;;0.20;0.20;;;10.90;82.80;9.90;102132.00;;;;30871427;28;20134;-66
2021/10/17 22:50:50;;;;;;;0.20;0.20;;;10.90;84.00;10.00;102139.00;;;;30853625;28;20050;-65
2021/10/17 23:05:51;;;;;;;0.20;0.20;;;11.10;81.90;10.10;102117.00;;;;30802944;28;20054;-65
2021/10/17 23:20:52;;;;;;;0.17;0.17;;;11.20;81.60;10.20;102116.00;;;;30792882;28;20384;-65
2021/10/17 23:35:53;;;;;;;0.20;0.20;;;11.20;80.90;10.20;102131.00;;;;30777565;28;20039;-65
2021/10/17 23:50:55;;;;;;;0.20;0.20;;;11.10;81.80;10.10;102131.00;;;;30780637;28;20450;-65
